Home > Products > Valid Products > TAF

000
FTUS44 KFWD 161700
TAFFTW
TAF
KFTW 161720Z 1618/1718 17020G30KT P6SM BKN250
     FM170100 14013KT P6SM SCT040 BKN250
     FM170900 14010KT P6SM OVC012
     FM171700 15010KT P6SM OVC020=



000
FTUS44 KFWD 161700
TAFACT
TAF
KACT 161720Z 1618/1718 17020G30KT P6SM BKN250
     FM170100 14013KT P6SM SCT040 BKN250
     FM170800 14009KT P6SM OVC010
      TEMPO 1711/1714 OVC007=



000
FTUS44 KFWD 161700
TAFDFW
TAF
KDFW 161720Z 1618/1724 17020G30KT P6SM BKN250
     FM170100 14013KT P6SM SCT040 BKN250
     FM170900 14010KT P6SM OVC012
     FM171700 15010KT P6SM BKN025 OVC050=



000
FTUS44 KFWD 161500 AAA
TAFACT
TAF AMD
KACT 161503Z 1615/1712 17020KT P6SM BKN250
     FM170000 14012KT P6SM SCT040 BKN250
     FM170800 14009KT P6SM OVC015=



000
FTUS44 KFWD 161500 AAA
TAFFTW
TAF AMD
KFTW 161503Z 1615/1712 17020G30KT P6SM BKN250
     FM170000 14012KT P6SM SCT040 BKN250
     FM170900 14010KT P6SM OVC020=



000
FTUS44 KFWD 161500 AAA
TAFDFW
TAF AMD
KDFW 161503Z 1615/1718 17020G30KT P6SM BKN250
     FM170000 14012KT P6SM SCT040 BKN250
     FM170900 14010KT P6SM OVC020=



000
FTUS44 KFWD 161100
TAFACT
TAF
KACT 161131Z 1612/1712 16012KT P6SM SCT250
     FM161500 17016G26KT P6SM BKN250
     FM170000 14012KT P6SM SCT040 BKN250
     FM170900 14009KT P6SM OVC015=



000
FTUS44 KFWD 161100
TAFFTW
TAF
KFTW 161131Z 1612/1712 17012KT P6SM BKN250
     FM161500 17020G30KT P6SM BKN250
     FM170000 14012KT P6SM SCT040 BKN250
     FM170900 14010KT P6SM OVC020=



000
FTUS44 KFWD 161100
TAFDFW
TAF
KDFW 161131Z 1612/1718 17012KT P6SM BKN250
     FM161500 17020G30KT P6SM BKN250
     FM170000 14012KT P6SM SCT040 BKN250
     FM170900 14010KT P6SM OVC020=



000
FTUS44 KFWD 160900 AAA
TAFACT
TAF AMD
KACT 160901Z 1609/1706 16012KT P6SM SKC
     FM161500 17016G26KT P6SM SCT250
     FM170000 14012KT P6SM SCT040 BKN250
     FM170500 14009KT P6SM OVC020=



000
FTUS44 KFWD 160900 AAA
TAFDFW
TAF AMD
KDFW 160901Z 1609/1712 17012KT P6SM SKC
     FM161500 17020G30KT P6SM SCT250
     FM170000 14012KT P6SM SCT040 BKN250
     FM170800 14009KT P6SM OVC020=



000
FTUS44 KFWD 160900 AAA
TAFFTW
TAF AMD
KFTW 160901Z 1609/1706 16012KT P6SM SKC
     FM161500 17020G30KT P6SM SCT250
     FM170000 14012KT P6SM SCT040 BKN250=



000
FTUS44 KFWD 160500
TAFDFW
TAF
KDFW 160520Z 1606/1712 16007KT P6SM SKC
     FM161500 17020G30KT P6SM SCT250
     FM170000 14012KT P6SM SCT040 BKN250
     FM170800 14009KT P6SM OVC020=



000
FTUS44 KFWD 160500
TAFFTW
TAF
KFTW 160520Z 1606/1706 16007KT P6SM SKC
     FM161500 17020G30KT P6SM SCT250
     FM170000 14012KT P6SM SCT040 BKN250=



000
FTUS44 KFWD 160500
TAFACT
TAF
KACT 160520Z 1606/1706 15006KT P6SM SKC
     FM161500 17018G28KT P6SM SCT250
     FM170000 14012KT P6SM SCT040 BKN250
     FM170500 14009KT P6SM OVC020=



000
FTUS44 KFWD 160300 AAA
TAFACT
TAF AMD
KACT 160301Z 1603/1624 15006KT P6SM SKC
     FM161500 17018G28KT P6SM SCT250=



000
FTUS44 KFWD 160300 AAA
TAFFTW
TAF AMD
KFTW 160301Z 1603/1624 16007KT P6SM SKC
     FM161500 17020G30KT P6SM SCT250=



000
FTUS44 KFWD 160300 AAA
TAFDFW
TAF AMD
KDFW 160301Z 1603/1706 16007KT P6SM SKC
     FM161500 17020G30KT P6SM SCT250
     FM170000 14010KT P6SM SCT040 BKN250=



000
FTUS44 KFWD 152300
TAFDFW
TAF
KDFW 152337Z 1600/1706 17007KT P6SM SKC
     FM161500 17020G30KT P6SM SCT250
     FM170000 14010KT P6SM SCT040 BKN250=



000
FTUS44 KFWD 152300
TAFACT
TAF
KACT 152337Z 1600/1624 17007KT P6SM SKC
     FM161500 17018G28KT P6SM SCT250=



000
FTUS44 KFWD 152300
TAFFTW
TAF
KFTW 152337Z 1600/1624 17007KT P6SM SKC
     FM161500 17020G30KT P6SM SCT250=



000
FTUS44 KFWD 152000 AAA
TAFFTW
TAF AMD
KFTW 152052Z 1521/1618 VRB03KT P6SM SKC
     FM160000 17007KT P6SM SKC
     FM161600 17020KT P6SM FEW250=



000
FTUS44 KFWD 152000 AAA
TAFACT
TAF AMD
KACT 152052Z 1521/1618 VRB03KT P6SM SKC
     FM160000 17007KT P6SM SKC
     FM161600 17020KT P6SM FEW250=



000
FTUS44 KFWD 152000 AAA
TAFDFW
TAF AMD
KDFW 152052Z 1521/1624 VRB03KT P6SM SKC
     FM160000 17007KT P6SM SKC
     FM161600 17020KT P6SM FEW250=



000
FTUS44 KFWD 151700
TAFFTW
TAF
KFTW 151720Z 1518/1618 VRB03KT P6SM SKC
     FM160000 17007KT P6SM SKC
     FM161600 17020KT P6SM FEW250=



000
FTUS44 KFWD 151700
TAFACT
TAF
KACT 151720Z 1518/1618 VRB03KT P6SM SKC
     FM160000 17007KT P6SM SKC
     FM161600 17020KT P6SM FEW250=



000
FTUS44 KFWD 151700
TAFDFW
TAF
KDFW 151720Z 1518/1624 VRB03KT P6SM SKC
     FM160000 17007KT P6SM SKC
     FM161600 17020KT P6SM FEW250=



000
FTUS44 KFWD 151500 AAA
TAFDFW
TAF AMD
KDFW 151502Z 1515/1618 24007KT P6SM SKC
     FM152100 17007KT P6SM SKC
     FM161700 17018KT P6SM SKC=



000
FTUS44 KFWD 151500 AAA
TAFACT
TAF AMD
KACT 151502Z 1515/1612 VRB02KT P6SM SKC
     FM152100 17008KT P6SM SKC=



000
FTUS44 KFWD 151500 AAA
TAFFTW
TAF AMD
KFTW 151502Z 1515/1612 24005KT P6SM SKC
     FM152100 17007KT P6SM SKC=



000
FTUS44 KFWD 151100
TAFFTW
TAF
KFTW 151120Z 1512/1612 31005KT P6SM SKC
     FM152100 17007KT P6SM SKC=



000
FTUS44 KFWD 151100
TAFACT
TAF
KACT 151120Z 1512/1612 34006KT P6SM SKC
     FM152100 17008KT P6SM SKC=



000
FTUS44 KFWD 151100
TAFDFW
TAF
KDFW 151120Z 1512/1618 31007KT P6SM SKC
     FM152100 17007KT P6SM SKC
     FM161700 17018KT P6SM SKC=



000
FTUS44 KFWD 150800 AAA
TAFFTW
TAF AMD
KFTW 150900Z 1509/1606 34007KT P6SM SKC
     FM152100 16007KT P6SM SKC=



000
FTUS44 KFWD 150800 AAA
TAFDFW
TAF AMD
KDFW 150900Z 1509/1612 32007KT P6SM SKC
     FM152100 16007KT P6SM SKC=



000
FTUS44 KFWD 150800 AAA
TAFACT
TAF AMD
KACT 150900Z 1509/1606 34006KT P6SM SKC
     FM152100 17006KT P6SM SKC=



000
FTUS44 KFWD 150500
TAFFTW
TAF
KFTW 150520Z 1506/1606 33007KT P6SM SKC
     FM152100 16007KT P6SM SKC=



000
FTUS44 KFWD 150500
TAFDFW
TAF
KDFW 150520Z 1506/1612 33007KT P6SM SKC
     FM152100 16007KT P6SM SKC=



000
FTUS44 KFWD 150500
TAFACT
TAF
KACT 150520Z 1506/1606 34006KT P6SM SKC
     FM152100 17006KT P6SM SKC=



000
FTUS44 KFWD 150300 AAA
TAFDFW
TAF AMD
KDFW 150304Z 1503/1606 34008KT P6SM SKC
     FM152300 16007KT P6SM SKC=



000
FTUS44 KFWD 150300 AAA
TAFFTW
TAF AMD
KFTW 150304Z 1503/1524 34008KT P6SM SKC
     FM152300 16007KT P6SM SKC=



000
FTUS44 KFWD 150300 AAA
TAFACT
TAF AMD
KACT 150304Z 1503/1524 34007KT P6SM SKC
     FM152000 17006KT P6SM SKC=



000
FTUS44 KFWD 142300 RRA
TAFFTW
TAF
KFTW 142341Z 1500/1524 34018G28KT P6SM SCT050
     FM150200 34015KT P6SM SKC
     FM150800 31006KT P6SM SKC
     FM152300 16007KT P6SM SKC=



000
FTUS44 KFWD 142300 RRA
TAFACT
TAF
KACT 142341Z 1500/1524 35020G30KT P6SM SCT050
     FM150100 34014KT P6SM SKC
     FM151000 34007KT P6SM SKC
     FM152000 17006KT P6SM SKC=



000
FTUS44 KFWD 142300 RRA
TAFDFW
TAF
KDFW 142341Z 1500/1606 34018G28KT P6SM SCT050
     FM150200 34015KT P6SM SKC
     FM150800 31006KT P6SM SKC
     FM152300 16007KT P6SM SKC=



000
FTUS44 KFWD 142000 AAA
TAFACT
TAF AMD
KACT 142052Z 1421/1518 35017G27KT P6SM BKN040
     FM150200 34013KT P6SM SKC=



000
FTUS44 KFWD 142000 AAA
TAFFTW
TAF AMD
KFTW 142052Z 1421/1518 35017G27KT P6SM BKN035
     FM142300 34015KT P6SM SKC=



000
FTUS44 KFWD 142000 AAA
TAFDFW
TAF AMD
KDFW 142052Z 1421/1524 35017G27KT P6SM BKN035
     FM142300 34015KT P6SM SKC
     FM151900 27006KT P6SM SKC=



000
FTUS44 KFWD 141700
TAFDFW
TAF
KDFW 141720Z 1418/1524 35024G34KT P6SM OVC030
     FM141900 35020G30KT P6SM BKN035
     FM142300 35015G25KT P6SM SKC
     FM150200 34015KT P6SM SKC
     FM150800 34006KT P6SM SKC
     FM151900 27006KT P6SM SKC=



000
FTUS44 KFWD 141700
TAFACT
TAF
KACT 141720Z 1418/1518 35020G30KT P6SM VCSH OVC030
     FM142000 35020G30KT P6SM BKN040
     FM142300 34018KT P6SM SCT040
     FM150200 34013KT P6SM SKC
     FM150800 33006KT P6SM SKC=



000
FTUS44 KFWD 141700
TAFFTW
TAF
KFTW 141720Z 1418/1518 35022G32KT P6SM OVC030
     FM141900 35020G30KT P6SM BKN035
     FM142300 35015G25KT P6SM SKC
     FM150200 34015KT P6SM SKC
     FM150800 34006KT P6SM SKC=



000
FTUS44 KFWD 141500 AAA
TAFDFW
TAF AMD
KDFW 141503Z 1415/1518 35024G34KT P6SM OVC023
     FM142000 35023G33KT P6SM SCT040
     FM150200 34015KT P6SM SKC
     FM150800 34006KT P6SM SKC=



000
FTUS44 KFWD 141500 AAA
TAFFTW
TAF AMD
KFTW 141503Z 1415/1512 34022G32KT P6SM OVC024
     FM142000 35022G32KT P6SM SCT040
     FM150200 34015KT P6SM SKC
     FM150800 35006KT P6SM SKC=



000
FTUS44 KFWD 141500 AAB
TAFACT
TAF AMD
KACT 141503Z 1415/1512 35020G30KT P6SM OVC025
      TEMPO 1415/1416 6SM -TSRA BKN020CB
     FM141900 35023G33KT P6SM SCT035
     FM150200 34013KT P6SM SKC
     FM150500 34004KT P6SM SKC=



000
FTUS44 KFWD 141400 AAA
TAFACT
TAF AMD
KACT 141405Z 1414/1512 35020G30KT P6SM OVC025
      TEMPO 1414/1416 3SM TSRA BKN015CB
     FM141900 35023G33KT P6SM SCT035
     FM150200 34013KT P6SM SKC
     FM150500 34004KT P6SM SKC=



000
FTUS44 KFWD 141100
TAFDFW
TAF
KDFW 141120Z 1412/1518 35024G34KT P6SM OVC023
     FM142000 35023G33KT P6SM SCT040
     FM150200 34015KT P6SM SKC
     FM150800 34006KT P6SM SKC=



000
FTUS44 KFWD 141100
TAFFTW
TAF
KFTW 141120Z 1412/1512 34022G32KT P6SM OVC024
     FM142000 35022G32KT P6SM SCT040
     FM150200 34015KT P6SM SKC
     FM150800 35006KT P6SM SKC=



000
FTUS44 KFWD 141100
TAFACT
TAF
KACT 141120Z 1412/1512 35020G30KT P6SM OVC018
     FM141900 35023G33KT P6SM SCT035
     FM150200 34013KT P6SM SKC
     FM150500 34004KT P6SM SKC=



000
FTUS44 KFWD 141000 AAC
TAFACT
TAF AMD
KACT 141020Z 1410/1506 30016KT P6SM VCSH BKN015
      TEMPO 1410/1411 3SM -TSRA BKN015CB
     FM141200 35022G32KT P6SM OVC017
     FM142000 35025G35KT P6SM BKN024
     FM150100 34019KT P6SM SKC=



000
FTUS44 KFWD 141000 AAA
TAFFTW
TAF AMD
KFTW 141020Z 1410/1506 35022G32KT P6SM OVC023
     FM142100 35023G33KT P6SM SCT050
     FM150200 34015KT P6SM SKC=



000
FTUS44 KFWD 141000 AAA
TAFDFW
TAF AMD
KDFW 141020Z 1410/1512 35025G35KT P6SM OVC021
     FM142100 35023G33KT P6SM SCT050
     FM150200 34015KT P6SM SKC
     FM151000 33006KT P6SM SKC=



000
FTUS44 KFWD 140800 AAB
TAFACT
TAF AMD
KACT 140845Z 1409/1506 30016KT P6SM VCSH BKN015
      TEMPO 1409/1411 3SM -TSRA BKN015CB
     FM141200 35022G32KT P6SM OVC017
     FM142000 35025G35KT P6SM BKN024
     FM150100 34019KT P6SM SKC=



000
FTUS44 KFWD 140700 AAA
TAFACT
TAF AMD
KACT 140732Z 1408/1506 30016KT P6SM VCSH BKN015
      TEMPO 1408/1410 -SHRA
     FM141200 35022G32KT P6SM OVC017
     FM142000 35025G35KT P6SM BKN024
     FM150100 34019KT P6SM SKC=



000
FTUS44 KFWD 140500
TAFACT
TAF
KACT 140520Z 1406/1506 18012KT P6SM SCT018
     FM140800 30016KT P6SM BKN015
     FM141200 35022G32KT P6SM OVC017
     FM142000 35025G35KT P6SM BKN024
     FM150100 34019KT P6SM SKC=



000
FTUS44 KFWD 140500
TAFDFW
TAF
KDFW 140520Z 1406/1512 33016KT P6SM SCT018 BKN030
     FM140700 34015G25KT P6SM OVC018
     FM141000 35025G35KT P6SM OVC017
     FM141600 35026G36KT P6SM OVC024
     FM142100 35023G33KT P6SM SCT050
     FM150200 34015KT P6SM SKC
     FM151000 33006KT P6SM SKC=



000
FTUS44 KFWD 140500
TAFFTW
TAF
KFTW 140520Z 1406/1506 33017KT P6SM SCT018 BKN030
     FM140700 34015G25KT P6SM BKN017
     FM141000 35024G34KT P6SM OVC017
     FM141600 35025G35KT P6SM OVC022
     FM142100 35023G33KT P6SM SCT050
     FM150200 34015KT P6SM SKC=



000
FTUS44 KFWD 140300 AAC
TAFFTW
TAF AMD
KFTW 140304Z 1403/1424 34016KT P6SM SCT018 BKN100
     FM140500 35016G26KT P6SM OVC015
     FM141100 35020G30KT P6SM OVC025
     FM142100 35020G30KT P6SM BKN050=



000
FTUS44 KFWD 140300 AAA
TAFACT
TAF AMD
KACT 140304Z 1403/1424 18015KT P6SM SCT023 BKN250
     FM140700 30018KT P6SM VCSH OVC015
     FM141500 35020G30KT P6SM OVC025
     FM142200 35020G30KT P6SM BKN050=



000
FTUS44 KFWD 140300 AAC
TAFDFW
TAF AMD
KDFW 140304Z 1403/1506 34016KT P6SM SCT018 BKN100
     FM140500 35016G26KT P6SM OVC015
     FM141100 35020G30KT P6SM OVC025
     FM142100 35020G30KT P6SM BKN050
     FM150200 34015KT P6SM SCT250=



000
FTUS44 KFWD 140100 AAB
TAFDFW
TAF AMD
KDFW 140157Z 1402/1506 20016G26KT P6SM SCT025 BKN120
     FM140300 34016KT P6SM VCTS SCT030CB BKN100
     FM140700 35016G26KT P6SM OVC015
     FM141100 35020G30KT P6SM OVC025
     FM142100 35020G30KT P6SM BKN050
     FM150200 34015KT P6SM SCT250=



000
FTUS44 KFWD 140100 AAB
TAFFTW
TAF AMD
KFTW 140157Z 1402/1424 20016G26KT P6SM SCT025 BKN120
     FM140300 34016KT P6SM VCTS SCT030CB BKN100
     FM140700 35016G26KT P6SM OVC015
     FM141100 35020G30KT P6SM OVC025
     FM142100 35020G30KT P6SM BKN050=



000
FTUS44 KFWD 140100 AAA
TAFDFW
TAF AMD
KDFW 140105Z 1401/1506 20016G26KT P6SM SCT025 BKN120
     FM140230 33015KT 5SM TSRA BKN025CB
     FM140400 34016KT P6SM SCT070 BKN100
     FM140700 35016G26KT P6SM OVC015
     FM141100 35020G30KT P6SM OVC025
     FM142100 35020G30KT P6SM BKN050
     FM150200 34015KT P6SM SCT250=



000
FTUS44 KFWD 140100 AAA
TAFFTW
TAF AMD
KFTW 140105Z 1401/1424 20016G26KT P6SM SCT025
     FM140230 33015KT 5SM TSRA BKN035CB
     FM140400 34016KT P6SM SCT070 BKN100
     FM140700 35016G26KT P6SM OVC015
     FM141100 35020G30KT P6SM OVC025
     FM142100 35020G30KT P6SM BKN050=



000
FTUS44 KFWD 132300
TAFACT
TAF
KACT 132339Z 1400/1424 18015KT P6SM SCT023 BKN250
      TEMPO 1400/1403 BKN023
     FM140900 30018KT P6SM VCSH OVC015
     FM141500 35020G30KT P6SM OVC025
     FM142200 35020G30KT P6SM BKN050=



000
FTUS44 KFWD 132300
TAFFTW
TAF
KFTW 132339Z 1400/1424 21016G26KT P6SM FEW020 SCT120 BKN250
     FM140300 33015KT P6SM VCSH SCT050CB
     FM140700 35016G26KT P6SM OVC015
     FM141100 35020G30KT P6SM OVC025
     FM142100 35020G30KT P6SM BKN050=



000
FTUS44 KFWD 132300
TAFDFW
TAF
KDFW 132339Z 1400/1506 21016G26KT P6SM FEW020 SCT120 BKN250
     FM140300 33015KT P6SM VCSH SCT050CB
     FM140700 35016G26KT P6SM OVC015
     FM141100 35020G30KT P6SM OVC025
     FM142100 35020G30KT P6SM BKN050
     FM150200 34015KT P6SM SCT250=



000
FTUS44 KFWD 132000 AAB
TAFDFW
TAF AMD
KDFW 132057Z 1321/1424 18018G28KT P6SM SCT015 BKN100
     FM132300 19020G30KT P6SM VCTS BKN050CB
     FM140100 22016KT P6SM BKN250
     FM140500 33015KT P6SM VCSH OVC015
     FM141100 35020G30KT P6SM OVC025=



000
FTUS44 KFWD 132000 AAC
TAFACT
TAF AMD
KACT 132057Z 1321/1418 18015KT P6SM VCSH BKN120
     FM140100 22017KT P6SM SCT100 BKN250
     FM140900 30018KT P6SM VCSH OVC015
     FM141500 35020G30KT P6SM OVC025=



000
FTUS44 KFWD 132000 AAA
TAFFTW
TAF AMD
KFTW 132057Z 1321/1418 17015G25KT P6SM FEW015 BKN100
     FM132300 19018G28KT P6SM VCTS BKN050CB
     FM140100 22016KT P6SM BKN250
     FM140500 33014KT P6SM VCSH OVC015
     FM141100 35020G30KT P6SM OVC025=



000
FTUS44 KFWD 132000 AAA
TAFDFW
TAF AMD
KDFW 132007Z 1320/1424 17018G28KT P6SM BKN012 OVC100
     FM132300 19020G30KT P6SM VCTS BKN050CB
     FM140100 22016KT P6SM BKN250
     FM140500 33015KT P6SM VCSH OVC015
     FM141100 35020G30KT P6SM OVC025=



000
FTUS44 KFWD 131900 AAB
TAFACT
TAF AMD
KACT 131940Z 1320/1418 16020G30KT P6SM VCSH BKN100
     FM140100 22017KT P6SM SCT100 BKN250
     FM140900 30018KT P6SM VCSH OVC015
     FM141500 35020G30KT P6SM OVC025=



    US Dept of Commerce
    National Oceanic and Atmospheric Administration
    National Weather Service
    1325 East West Highway
    Silver Spring, MD 20910
    Page Author: NWS Internet Services Team
Disclaimer
Information Quality
Credits
Glossary
Privacy Policy
Freedom of Information Act (FOIA)
About Us
Career Opportunities